createdAt,value
2018-04-29T00:04:07.437Z,60.94
2018-04-29T00:09:10.095Z,60.42
2018-04-29T00:14:12.566Z,60.04
2018-04-29T00:19:15.205Z,59.93
2018-04-29T00:24:17.715Z,60.29
2018-04-29T00:29:20.231Z,60.93
2018-04-29T00:34:22.698Z,61.39
2018-04-29T00:39:25.185Z,62.62
2018-04-29T00:44:27.669Z,63.67
2018-04-29T00:49:30.138Z,64.54
2018-04-29T00:54:32.615Z,65.05
2018-04-29T00:59:35.067Z,65.87
2018-04-29T01:04:37.562Z,66.09
2018-04-29T01:09:40.032Z,66.35
2018-04-29T01:14:42.602Z,66.98
2018-04-29T01:19:45.119Z,67.13
2018-04-29T01:24:47.675Z,66.82
2018-04-29T01:29:50.203Z,66.30
2018-04-29T01:34:52.667Z,65.93
2018-04-29T01:39:55.201Z,66.24
2018-04-29T01:44:57.593Z,65.39
2018-04-29T01:50:00.063Z,65.22
2018-04-29T01:55:02.519Z,65.80
2018-04-29T02:00:04.980Z,65.96
2018-04-29T02:05:07.441Z,65.89
2018-04-29T02:10:10.589Z,66.11
2018-04-29T02:15:13.092Z,66.40
2018-04-29T02:20:15.621Z,66.16
2018-04-29T02:25:18.129Z,66.83
2018-04-29T02:30:20.641Z,66.70
2018-04-29T02:35:23.128Z,67.01
2018-04-29T02:40:25.653Z,67.13
2018-04-29T02:45:28.151Z,67.36
2018-04-29T02:50:30.611Z,67.13
2018-04-29T02:55:33.095Z,67.42
2018-04-29T03:00:35.733Z,67.80
2018-04-29T03:05:38.129Z,67.99
2018-04-29T03:10:40.631Z,69.07
2018-04-29T03:15:43.133Z,69.93
2018-04-29T03:20:45.634Z,70.21
2018-04-29T03:25:48.260Z,70.77
2018-04-29T03:30:50.752Z,70.96
2018-04-29T03:35:53.244Z,71.32
2018-04-29T03:40:55.722Z,71.70
2018-04-29T03:45:58.206Z,72.15
2018-04-29T03:51:00.743Z,72.83
2018-04-29T03:56:03.267Z,72.94
2018-04-29T04:01:18.884Z,72.58
2018-04-29T04:06:21.413Z,71.77
2018-04-29T04:11:23.899Z,71.34
2018-04-29T04:16:27.310Z,70.89
2018-04-29T04:21:29.768Z,70.43
2018-04-29T04:26:32.224Z,69.91
2018-04-29T04:31:34.677Z,69.55
2018-04-29T04:36:37.154Z,68.35
2018-04-29T04:41:39.621Z,68.50
2018-04-29T04:46:42.479Z,68.52
2018-04-29T04:51:45.059Z,67.70
2018-04-29T04:56:47.610Z,66.04
2018-04-29T05:01:50.142Z,63.74
2018-04-29T05:06:52.714Z,55.67
2018-04-29T05:11:55.190Z,46.25
2018-04-29T05:16:57.721Z,38.00
2018-04-29T05:22:00.193Z,34.29
2018-04-29T05:27:02.759Z,33.48
2018-04-29T05:32:05.300Z,31.63
2018-04-29T05:37:07.779Z,28.44
2018-04-29T05:42:10.274Z,27.35
2018-04-29T05:47:12.895Z,29.21
2018-04-29T05:52:15.517Z,33.83
2018-04-29T05:57:18.099Z,35.04
2018-04-29T06:02:20.569Z,36.49
2018-04-29T06:07:23.105Z,32.35
2018-04-29T06:12:25.577Z,31.69
2018-04-29T06:17:28.926Z,37.30
2018-04-29T06:22:31.412Z,42.71
2018-04-29T06:27:33.882Z,41.55
2018-04-29T06:32:36.376Z,39.19
2018-04-29T06:37:38.875Z,39.68
2018-04-29T06:42:42.757Z,41.43
2018-04-29T06:47:45.476Z,42.88
2018-04-29T06:52:48.023Z,44.66
2018-04-29T06:57:50.764Z,46.17
2018-04-29T07:02:53.265Z,46.71
2018-04-29T07:07:55.723Z,44.28
2018-04-29T07:12:58.200Z,42.77
2018-04-29T07:18:00.656Z,42.43
2018-04-29T07:23:03.139Z,40.02
2018-04-29T07:28:05.659Z,40.24
2018-04-29T07:33:08.151Z,39.25
2018-04-29T07:38:10.677Z,37.45
2018-04-29T07:43:13.279Z,37.32
2018-04-29T07:48:15.783Z,35.85
2018-04-29T07:53:18.321Z,37.54
2018-04-29T07:58:20.821Z,38.71
2018-04-29T08:03:23.308Z,37.72
2018-04-29T08:08:25.780Z,36.53
2018-04-29T08:13:28.356Z,38.85
2018-04-29T08:18:30.829Z,40.36
2018-04-29T08:23:33.874Z,40.35
2018-04-29T08:28:36.457Z,38.12
2018-04-29T08:33:39.010Z,35.80
2018-04-29T08:38:41.484Z,35.10
2018-04-29T08:43:43.997Z,35.17
2018-04-29T08:48:46.650Z,34.97
2018-04-29T08:53:49.162Z,35.51
2018-04-29T08:58:52.284Z,27.33
2018-04-29T09:03:54.895Z,27.08
2018-04-29T09:08:57.223Z,25.28
2018-04-29T09:13:59.691Z,25.92
2018-04-29T09:19:02.186Z,24.60
2018-04-29T09:24:04.679Z,24.07
2018-04-29T09:29:07.173Z,26.47
2018-04-29T09:34:09.622Z,25.02
2018-04-29T09:39:12.165Z,22.85
2018-04-29T09:44:14.656Z,23.94
2018-04-29T09:49:17.591Z,25.21
2018-04-29T09:54:20.178Z,26.47
2018-04-29T09:59:23.370Z,27.41
2018-04-29T10:04:26.094Z,27.27
2018-04-29T10:09:28.676Z,26.52
2018-04-29T10:14:31.137Z,26.01
2018-04-29T10:19:33.593Z,26.95
2018-04-29T10:24:36.053Z,25.57
2018-04-29T10:29:38.550Z,24.66
2018-04-29T10:34:41.040Z,26.71
2018-04-29T10:39:43.548Z,25.77
2018-04-29T10:44:46.037Z,26.54
2018-04-29T10:49:48.577Z,30.27
2018-04-29T10:54:51.071Z,27.94
2018-04-29T10:59:53.601Z,28.80
2018-04-29T11:04:56.069Z,27.11
2018-04-29T11:09:58.552Z,28.36
2018-04-29T11:15:01.257Z,27.94
2018-04-29T11:20:03.749Z,29.14
2018-04-29T11:25:06.202Z,30.01
2018-04-29T11:30:09.072Z,28.21
2018-04-29T11:35:11.565Z,27.23
2018-04-29T11:40:14.104Z,28.13
2018-04-29T11:45:16.590Z,26.15
2018-04-29T11:50:19.076Z,27.43
2018-04-29T11:55:21.649Z,26.15
2018-04-29T12:00:24.496Z,26.05
2018-04-29T12:05:26.961Z,26.57
2018-04-29T12:10:29.429Z,27.98
2018-04-29T12:15:31.904Z,28.25
2018-04-29T12:20:35.326Z,25.82
2018-04-29T12:25:37.808Z,26.63
2018-04-29T12:30:40.290Z,27.58
2018-04-29T12:35:43.396Z,26.84
2018-04-29T12:40:45.915Z,27.01
2018-04-29T12:45:48.480Z,27.27
2018-04-29T12:50:50.987Z,26.02
2018-04-29T12:55:53.562Z,26.00
2018-04-29T13:00:56.056Z,26.44
2018-04-29T13:05:58.546Z,26.04
2018-04-29T13:11:01.013Z,27.19
2018-04-29T13:16:03.475Z,26.81
2018-04-29T13:21:05.963Z,26.70
2018-04-29T13:26:08.542Z,27.50
2018-04-29T13:31:11.106Z,25.37
2018-04-29T13:36:13.605Z,26.90
2018-04-29T13:41:16.100Z,26.14
2018-04-29T13:46:18.611Z,27.94
2018-04-29T13:51:21.106Z,25.90
2018-04-29T13:56:23.775Z,26.87
2018-04-29T14:01:26.243Z,26.37
2018-04-29T14:06:28.742Z,28.05
2018-04-29T14:11:31.218Z,26.61
2018-04-29T14:16:33.845Z,27.85
2018-04-29T14:21:36.288Z,28.32
2018-04-29T14:26:39.006Z,26.34
2018-04-29T14:31:42.281Z,26.93
2018-04-29T14:36:44.808Z,27.61
2018-04-29T14:41:47.307Z,27.31
2018-04-29T14:46:49.848Z,26.07
2018-04-29T14:51:52.490Z,25.96
2018-04-29T14:56:55.005Z,27.00
2018-04-29T15:01:57.523Z,26.96
2018-04-29T15:07:00.101Z,26.90
2018-04-29T15:12:02.559Z,27.38
2018-04-29T15:17:05.068Z,26.81
2018-04-29T15:22:07.549Z,27.07
2018-04-29T15:27:10.115Z,26.77
2018-04-29T15:32:12.678Z,26.61
2018-04-29T15:37:15.188Z,27.16
2018-04-29T15:42:17.770Z,26.55
2018-04-29T15:47:20.354Z,26.47
2018-04-29T15:52:22.767Z,25.77
2018-04-29T15:57:25.330Z,25.75
2018-04-29T16:02:27.798Z,26.41
2018-04-29T16:07:30.354Z,25.94
2018-04-29T16:12:32.841Z,26.38
2018-04-29T16:17:35.389Z,27.13
2018-04-29T16:22:37.858Z,27.52
2018-04-29T16:27:40.341Z,26.94
2018-04-29T16:32:42.894Z,28.04
2018-04-29T16:37:45.376Z,29.54
2018-04-29T16:42:47.946Z,29.75
2018-04-29T16:47:50.441Z,30.40
2018-04-29T16:52:52.978Z,30.81
2018-04-29T16:57:55.425Z,31.11
2018-04-29T17:02:57.925Z,31.83
2018-04-29T17:08:00.404Z,31.76
2018-04-29T17:13:02.894Z,32.21
2018-04-29T17:18:05.537Z,33.09
2018-04-29T17:23:08.004Z,33.27
2018-04-29T17:28:11.993Z,33.26
2018-04-29T17:33:15.531Z,33.81
2018-04-29T17:38:19.202Z,34.21
2018-04-29T17:43:22.445Z,34.79
2018-04-29T17:48:25.614Z,35.58
2018-04-29T17:53:28.210Z,35.86
2018-04-29T17:58:31.397Z,36.21
2018-04-29T18:03:33.953Z,36.57
2018-04-29T18:08:36.792Z,37.32
2018-04-29T18:13:39.282Z,37.59
2018-04-29T18:18:41.866Z,37.88
2018-04-29T18:23:44.497Z,38.47
2018-04-29T18:28:47.845Z,38.83
2018-04-29T18:33:50.707Z,39.16
2018-04-29T18:38:53.253Z,39.77
2018-04-29T18:43:55.730Z,40.18
2018-04-29T18:48:58.221Z,40.76
2018-04-29T18:54:00.694Z,40.83
2018-04-29T18:59:03.351Z,41.10
2018-04-29T19:04:05.821Z,41.44
2018-04-29T19:09:08.318Z,42.00
2018-04-29T19:14:11.635Z,42.24
2018-04-29T19:19:14.869Z,41.89
2018-04-29T19:24:17.728Z,42.00
2018-04-29T19:29:20.504Z,42.21
2018-04-29T19:34:23.020Z,42.69
2018-04-29T19:39:25.480Z,42.95
2018-04-29T19:44:27.966Z,42.84
2018-04-29T19:49:30.428Z,43.23
2018-04-29T19:54:33.003Z,44.13
2018-04-29T19:59:36.774Z,44.22
2018-04-29T20:04:40.173Z,44.64
2018-04-29T20:09:42.752Z,43.62
2018-04-29T20:14:45.454Z,43.79
2018-04-29T20:19:49.298Z,44.24
2018-04-29T20:24:52.735Z,43.85
2018-04-29T20:29:58.957Z,43.21
2018-04-29T20:35:03.805Z,43.56
2018-04-29T20:40:09.091Z,44.11
2018-04-29T20:45:16.357Z,44.13
2018-04-29T20:50:19.157Z,44.16
2018-04-29T20:55:23.984Z,44.08
2018-04-29T21:00:27.357Z,44.39
2018-04-29T21:05:29.936Z,44.84
2018-04-29T21:10:32.441Z,44.67
2018-04-29T21:15:34.919Z,45.06
2018-04-29T21:20:37.843Z,45.32
2018-04-29T21:25:40.281Z,45.68
2018-04-29T21:30:42.824Z,45.77
2018-04-29T21:35:46.112Z,45.89
2018-04-29T21:40:48.678Z,46.08
2018-04-29T21:45:51.283Z,46.11
2018-04-29T21:50:53.784Z,46.40
2018-04-29T21:55:56.248Z,46.47
2018-04-29T22:00:58.734Z,46.59
2018-04-29T22:06:01.200Z,47.36
2018-04-29T22:11:03.672Z,47.15
2018-04-29T22:16:06.146Z,47.33
2018-04-29T22:21:08.609Z,47.47
2018-04-29T22:26:12.206Z,47.96
2018-04-29T22:31:14.880Z,48.41
2018-04-29T22:36:17.386Z,48.46
2018-04-29T22:41:19.937Z,48.81
2018-04-29T22:46:22.733Z,48.92
2018-04-29T22:51:25.193Z,49.34
2018-04-29T22:56:27.666Z,49.16
2018-04-29T23:01:30.123Z,49.77
2018-04-29T23:06:32.574Z,50.05
2018-04-29T23:11:35.126Z,50.35
2018-04-29T23:16:37.779Z,50.44
2018-04-29T23:21:40.238Z,50.85
2018-04-29T23:26:42.727Z,51.45
2018-04-29T23:31:45.242Z,51.28
2018-04-29T23:36:47.782Z,51.54
2018-04-29T23:41:50.311Z,52.25
2018-04-29T23:46:52.776Z,52.22
2018-04-29T23:51:55.341Z,52.72
2018-04-29T23:56:57.738Z,53.03
